Jeiseyville, Illinois
Current Conditions -  °F | °C
As of 8:15 PM on Friday 24 Oct 2014 (Local Time) from KTAZ Reporting Station
Clear Clear  
Wind Chill: 55°   Ceiling: Unl
Heat Index: 55°   Visibility: 10mi
Dew Point: 52°   Wind: 6mph
Humidity: 88%   Direction: 170°S
Pressure: 30"   Gusts: NA
Location:  39.5521°N, 89.3216°W
Report Text: KTAZ 250115Z AUTO 17005KT 10SM CLR 13/11 A3000 RMK AO2
Loading
Personal Weather Stations






























Interactive Weather Map
Tropical Storm Tracking
New forecast layout! Learn more

10-Day Weather Forecast

Advertisements
Track Severe Weather on mobile